Arlington, Mississippi
Current Conditions -  °F | °C
As of 2:35 AM on Sunday 23 Nov 2014 (Local Time) from K1R7 Reporting Station
Overcast Overcast  
Wind Chill: 61°   Ceiling: 400
Heat Index: 61°   Visibility: 9mi
Dew Point: 59°   Wind: 7mph
Humidity: 94%   Direction: 110°ESE
Pressure: 29.83"   Gusts: NA
Location:  31.4439°N, 90.4692°W
Report Text: K1R7 230835Z AUTO 11006KT 010V020 9SM OVC004 16/15 A2983 RMK AO2
Loading
Personal Weather Stations






























Interactive Weather Map New forecast layout! Learn more

10-Day Weather Forecast

Advertisements
Track Severe Weather on mobile